Wednesday, October 18, 2017, 6:14 PM EDT
Back to Local

KSWF, Newburgh / Stewart

Location: New Windsor, NY, United States Lat: 41.5
Local Time: 6:14 PM EDT (22:14 GMT) Lon: -74.1
Time Zone: US/Eastern Elev: 492 ft

Show me the last for .
Show Decoded

2017-10-18 17:45 METAR KSWF 182145Z 00000KT 20SM SKC 20/09 A3025 =
2017-10-18 16:45 METAR KSWF 182045Z 26008KT 20SM SKC 21/09 A3025 =
2017-10-18 15:45 METAR KSWF 181945Z 26007KT 20SM SKC 21/10 A3026 =
2017-10-18 14:45 METAR KSWF 181845Z 24006KT 20SM SKC 21/10 A3027 =
2017-10-18 13:45 METAR KSWF 181745Z VRB05KT 20SM SKC 21/10 A3028 =
2017-10-18 12:45 METAR KSWF 181645Z VRB05KT 20SM SKC 19/09 A3031 =
2017-10-18 11:45 METAR KSWF 181545Z 24006KT 20SM SKC 17/09 A3032 =
2017-10-18 09:45 METAR KSWF 181345Z 22006KT 20SM SKC 12/06 A3033 =
2017-10-18 08:45 METAR KSWF 181245Z 27012KT 20SM SKC 10/05 A3032 =
2017-10-18 07:45 METAR KSWF 181145Z 27008KT 20SM SKC 07/04 A3030 =
2017-10-18 06:45 METAR KSWF 181045Z 22005KT 10SM SKC 07/03 A3030 =
2017-10-18 05:45 METAR KSWF 180945Z 25005KT 10SM SKC 06/03 A3029 =
2017-10-18 04:45 METAR KSWF 180845Z 27005KT 10SM SKC 05/03 A3027 =
2017-10-18 03:45 METAR KSWF 180745Z 28007KT 10SM SKC 06/03 A3026 =
2017-10-18 02:45 METAR KSWF 180645Z 24007KT 10SM SKC 07/03 A3026 =
2017-10-18 01:45 METAR KSWF 180545Z 28007KT 10SM SKC 06/03 A3027 =
2017-10-18 00:45 METAR KSWF 180445Z 24005KT 10SM SKC 08/02 A3027 =
2017-10-17 23:45 METAR KSWF 180345Z 25004KT 10SM SKC 08/03 A3027 =
2017-10-17 22:45 METAR KSWF 180245Z 25004KT 10SM SKC 08/03 A3027 =
2017-10-17 21:45 METAR KSWF 180145Z 25004KT 10SM SKC 09/03 A3027 =
2017-10-17 20:45 METAR KSWF 180045Z 240045KT 10SM SKC 10/02 A3026 =
2017-10-17 19:45 METAR KSWF 172345Z 24005KT 10SM SKC 10/03 A3025 =
2017-10-17 18:45 METAR KSWF 172245Z 24006KT 10SM SKC 13/01 A3024 =

Support USWX by starting your Amazon purchase here.